Terminal Aerodrome Forecast
Issued by NWS

Home | Current Version | Previous Version | Text Only | Print | Product List | Glossary On
Versions: 1 2 3 4 5 6 7 8 9 10 11 12 13 14
000
FTAK31 PANC 191133
TAFADQ
TAF
PADQ 191133Z 1912/2012 20006KT 5SM -SNRA BR SCT010 OVC025
      TEMPO 1912/1914 2SM -SN BR OVC010
     FM191500 14006KT 2SM -SNRA BR SCT005 OVC015
      TEMPO 1915/1919 1SM -SN BR BKN005
     FM192200 33018G28KT 1SM -SN BLSN FEW007 OVC012
     FM200600 34020G33KT 4SM -SHSN OVC015=

USA.gov is the U.S. government's official web portal to all federal, state and local government web resources and services.